Time;durP1;ratioP1;P1;durP2;ratioP2;P2;SDS_P1;SDS_P2;PMS_P1;PMS_P2;Temp;Humidity;BMP_temperature;BMP_pressure;BME280_temperature;BME280_humidity;BME280_pressure;Samples;Min_cycle;Max_cycle;Signal;HPM_P1;HPM_P2
2021/06/19 00:00:10;;;;;;;3.50;2.90;;;22.90;99.90;;;;;;5071428;28;20654;-76
2021/06/19 00:02:35;;;;;;;3.40;3.10;;;22.90;99.90;;;;;;5058470;28;21197;-76
2021/06/19 00:05:01;;;;;;;2.88;2.58;;;22.80;99.90;;;;;;5072633;28;20188;-75
2021/06/19 00:07:27;;;;;;;2.83;2.63;;;22.80;99.90;;;;;;5072088;28;20207;-76
2021/06/19 00:09:52;;;;;;;3.15;2.90;;;22.80;99.90;;;;;;5072503;28;20209;-76
2021/06/19 00:12:19;;;;;;;3.40;3.08;;;22.80;99.90;;;;;;5071977;28;20189;-76
2021/06/19 00:14:45;;;;;;;3.83;3.53;;;22.80;99.90;;;;;;5074741;28;20178;-74
2021/06/19 00:17:12;;;;;;;3.65;2.90;;;22.70;99.90;;;;;;5074151;28;20243;-76
2021/06/19 00:19:38;;;;;;;2.95;2.75;;;22.70;99.90;;;;;;5071397;28;20659;-76
2021/06/19 00:22:04;;;;;;;3.60;3.28;;;22.50;99.90;;;;;;5071544;28;20251;-76
2021/06/19 00:24:35;;;;;;;3.20;2.90;;;22.30;99.90;;;;;;5073697;28;20197;-76
2021/06/19 00:27:01;;;;;;;3.33;2.95;;;22.00;99.90;;;;;;5075977;28;20196;-76
2021/06/19 00:29:27;;;;;;;2.97;2.78;;;21.90;99.90;;;;;;5073787;28;20556;-76
2021/06/19 00:31:52;;;;;;;3.13;2.75;;;21.80;99.90;;;;;;5073980;28;20173;-76
2021/06/19 00:34:18;;;;;;;3.10;2.90;;;21.70;99.90;;;;;;5071869;28;20277;-76
2021/06/19 00:36:43;;;;;;;3.42;2.97;;;21.40;99.90;;;;;;5074254;28;20209;-76
2021/06/19 00:39:09;;;;;;;3.30;3.00;;;21.50;99.90;;;;;;5079093;28;20268;-76
2021/06/19 00:41:35;;;;;;;3.03;2.75;;;21.40;99.90;;;;;;5076966;28;20180;-76
2021/06/19 00:44:13;;;;;;;3.63;3.00;;;21.50;99.90;;;;;;5077089;28;20192;-76
2021/06/19 00:46:39;;;;;;;3.40;3.10;;;21.40;99.90;;;;;;5073609;28;20257;-76
2021/06/19 00:49:04;;;;;;;3.20;2.90;;;21.30;99.90;;;;;;5074196;28;20193;-75
2021/06/19 00:51:30;;;;;;;3.22;2.92;;;21.30;99.90;;;;;;5079455;28;20212;-76
2021/06/19 00:53:56;;;;;;;3.35;3.05;;;21.40;99.90;;;;;;5075649;28;20264;-76
2021/06/19 00:56:22;;;;;;;3.20;2.95;;;21.40;99.90;;;;;;5068538;28;20201;-76
2021/06/19 00:58:48;;;;;;;3.42;3.13;;;21.40;99.90;;;;;;5073365;28;20216;-76
2021/06/19 01:01:14;;;;;;;3.17;2.88;;;21.40;99.90;;;;;;5057950;28;20629;-76
2021/06/19 01:03:40;;;;;;;3.47;3.17;;;21.40;99.90;;;;;;5078700;28;20261;-76
2021/06/19 01:06:06;;;;;;;3.40;3.10;;;21.40;99.90;;;;;;5077486;28;20686;-76
2021/06/19 01:08:32;;;;;;;3.53;2.72;;;21.40;99.90;;;;;;5075755;28;20219;-76
2021/06/19 01:10:58;;;;;;;3.08;2.88;;;21.30;99.90;;;;;;5076505;28;20244;-76
2021/06/19 01:13:23;;;;;;;3.20;2.90;;;21.30;99.90;;;;;;5075812;28;20177;-76
2021/06/19 01:15:49;;;;;;;3.20;2.90;;;21.30;99.90;;;;;;5076877;28;20181;-76
2021/06/19 01:18:15;;;;;;;3.22;2.92;;;21.20;99.90;;;;;;5077827;28;20178;-77
2021/06/19 01:20:40;;;;;;;3.63;3.17;;;21.10;99.90;;;;;;5074528;28;20602;-76
2021/06/19 01:23:06;;;;;;;3.63;3.20;;;21.10;99.90;;;;;;5073142;28;20173;-75
2021/06/19 01:25:33;;;;;;;3.38;3.17;;;21.10;99.90;;;;;;5078419;28;20231;-75
2021/06/19 01:28:00;;;;;;;3.95;3.25;;;21.00;99.90;;;;;;5073838;28;20217;-76
2021/06/19 01:30:28;;;;;;;3.92;2.88;;;21.00;99.90;;;;;;5058910;28;20205;-76
2021/06/19 01:32:55;;;;;;;2.80;2.60;;;21.00;99.90;;;;;;5075396;28;20249;-76
2021/06/19 01:35:22;;;;;;;3.22;3.03;;;21.00;99.90;;;;;;5075234;28;20562;-76
2021/06/19 01:37:54;;;;;;;3.45;3.15;;;21.00;99.90;;;;;;5068719;28;20734;-76
2021/06/19 01:40:24;;;;;;;3.63;3.33;;;20.90;99.90;;;;;;5072703;28;20178;-76
2021/06/19 01:42:51;;;;;;;4.05;3.05;;;20.80;99.90;;;;;;5073898;28;20186;-76
2021/06/19 01:45:40;;;;;;;3.22;2.95;;;20.70;99.90;;;;;;5080833;28;20189;-76
2021/06/19 01:48:07;;;;;;;2.97;2.78;;;20.70;99.90;;;;;;5055372;28;20181;-76
2021/06/19 01:50:34;;;;;;;3.70;3.35;;;20.90;99.90;;;;;;5054945;28;20291;-76
2021/06/19 01:53:01;;;;;;;3.50;3.20;;;20.90;99.90;;;;;;5070910;28;20196;-76
2021/06/19 01:55:26;;;;;;;3.47;3.17;;;21.00;99.90;;;;;;5069077;28;20658;-76
2021/06/19 01:57:55;;;;;;;3.35;3.05;;;20.90;99.90;;;;;;5075174;28;20212;-75
2021/06/19 02:00:25;;;;;;;3.33;3.08;;;20.90;99.90;;;;;;5072623;28;20659;-75
2021/06/19 02:02:52;;;;;;;3.78;2.97;;;20.90;99.90;;;;;;5075306;28;20199;-76
2021/06/19 02:05:19;;;;;;;3.40;3.10;;;20.90;99.90;;;;;;5072142;28;20542;-76
2021/06/19 02:07:49;;;;;;;2.92;2.58;;;20.90;99.90;;;;;;5067796;28;20209;-76
2021/06/19 02:10:17;;;;;;;3.20;2.90;;;20.90;99.90;;;;;;5067941;28;20204;-76
2021/06/19 02:12:43;;;;;;;3.78;3.38;;;20.90;99.90;;;;;;5071180;28;20177;-76
2021/06/19 02:15:09;;;;;;;3.47;3.17;;;21.00;99.90;;;;;;5071087;28;20657;-76
2021/06/19 02:17:35;;;;;;;3.50;3.20;;;20.90;99.90;;;;;;5072677;28;20202;-76
2021/06/19 02:20:01;;;;;;;3.60;3.30;;;20.90;99.90;;;;;;5074396;28;20215;-76
2021/06/19 02:22:27;;;;;;;3.67;3.10;;;20.90;99.90;;;;;;5060178;28;20234;-76
2021/06/19 02:24:52;;;;;;;3.65;3.10;;;20.80;99.90;;;;;;5077533;28;20208;-76
2021/06/19 02:27:20;;;;;;;3.67;3.38;;;20.70;99.90;;;;;;5072558;28;20291;-76
2021/06/19 02:29:45;;;;;;;3.40;3.10;;;20.60;99.90;;;;;;5073518;28;20197;-76
2021/06/19 02:32:11;;;;;;;3.38;3.13;;;20.50;99.90;;;;;;5077536;28;20172;-75
2021/06/19 02:34:37;;;;;;;3.17;2.95;;;20.50;99.90;;;;;;5071275;28;20185;-76
2021/06/19 02:37:04;;;;;;;3.55;3.25;;;20.50;99.90;;;;;;5068037;28;20277;-76
2021/06/19 02:39:29;;;;;;;3.05;2.78;;;20.60;99.90;;;;;;5071016;28;20738;-76
2021/06/19 02:41:55;;;;;;;3.00;2.80;;;20.70;99.90;;;;;;5071486;28;20272;-75
2021/06/19 02:44:21;;;;;;;3.42;3.13;;;20.70;99.90;;;;;;5072731;28;21224;-76
2021/06/19 02:46:47;;;;;;;3.80;3.50;;;20.80;99.90;;;;;;5072115;28;20691;-76
2021/06/19 02:49:13;;;;;;;3.67;3.38;;;20.90;99.90;;;;;;5073857;28;20188;-75
2021/06/19 02:51:38;;;;;;;3.40;3.10;;;21.00;99.90;;;;;;5070343;28;20209;-77
2021/06/19 02:54:05;;;;;;;3.55;3.25;;;21.00;99.90;;;;;;5072815;28;20544;-78
2021/06/19 02:56:31;;;;;;;3.72;3.38;;;20.90;99.90;;;;;;5055557;28;20197;-79
2021/06/19 02:58:56;;;;;;;4.13;3.83;;;21.00;99.90;;;;;;5074670;28;20708;-77
2021/06/19 03:01:22;;;;;;;3.97;3.42;;;21.00;99.90;;;;;;5073981;28;20193;-77
2021/06/19 03:03:48;;;;;;;3.67;3.33;;;21.00;99.90;;;;;;5056849;28;20185;-78
2021/06/19 03:06:15;;;;;;;3.95;3.55;;;20.90;99.90;;;;;;5057127;28;20197;-77
2021/06/19 03:08:40;;;;;;;3.88;3.25;;;20.90;99.90;;;;;;5073953;28;20204;-78
2021/06/19 03:11:06;;;;;;;3.47;3.17;;;20.90;99.90;;;;;;5073888;28;20212;-79
2021/06/19 03:13:32;;;;;;;3.28;2.95;;;20.90;99.90;;;;;;5074031;28;20188;-79
2021/06/19 03:15:57;;;;;;;5.47;3.35;;;21.00;99.90;;;;;;5073374;28;20199;-78
2021/06/19 03:18:23;;;;;;;4.10;3.60;;;21.10;99.90;;;;;;5073781;28;20212;-78
2021/06/19 03:20:49;;;;;;;3.40;3.10;;;21.30;99.90;;;;;;5073284;28;20185;-80
2021/06/19 03:23:15;;;;;;;4.10;3.78;;;21.20;99.90;;;;;;5073701;28;20189;-78
2021/06/19 03:25:43;;;;;;;3.80;3.50;;;21.10;99.90;;;;;;5072774;28;20192;-78
2021/06/19 03:28:10;;;;;;;3.85;3.55;;;21.20;99.90;;;;;;5061238;28;20588;-77
2021/06/19 03:30:38;;;;;;;3.85;3.55;;;21.20;99.90;;;;;;5074615;28;20546;-78
2021/06/19 03:33:05;;;;;;;3.65;3.35;;;21.30;99.90;;;;;;5073668;28;20233;-79
2021/06/19 03:35:32;;;;;;;3.47;3.15;;;21.50;99.90;;;;;;5054640;28;20185;-77
2021/06/19 03:37:58;;;;;;;4.93;3.85;;;21.60;99.90;;;;;;5052718;28;20212;-77
2021/06/19 03:40:28;;;;;;;3.95;3.63;;;21.60;99.90;;;;;;5074022;28;20185;-78
2021/06/19 03:42:54;;;;;;;3.60;3.30;;;21.70;99.90;;;;;;5074007;28;20201;-78
2021/06/19 03:45:23;;;;;;;3.75;3.42;;;21.80;99.90;;;;;;5073411;28;20181;-79
2021/06/19 03:47:48;;;;;;;3.30;3.10;;;21.80;99.90;;;;;;5055061;28;20270;-78
2021/06/19 03:50:20;;;;;;;4.00;3.45;;;22.00;99.90;;;;;;5072721;28;20683;-77
2021/06/19 03:52:46;;;;;;;4.32;3.67;;;21.90;99.90;;;;;;5058770;28;20238;-77
2021/06/19 03:55:12;;;;;;;5.22;3.10;;;21.80;99.90;;;;;;5073112;28;20182;-78
2021/06/19 03:57:38;;;;;;;3.45;3.15;;;21.70;99.90;;;;;;5072804;28;20243;-79
2021/06/19 04:00:06;;;;;;;3.65;3.35;;;21.70;99.90;;;;;;5073583;28;20189;-78
2021/06/19 04:02:32;;;;;;;3.20;2.90;;;21.60;99.90;;;;;;5055700;28;20189;-79
2021/06/19 04:04:58;;;;;;;3.78;3.10;;;21.70;99.90;;;;;;5075095;28;20600;-79
2021/06/19 04:07:23;;;;;;;5.28;3.80;;;21.70;99.90;;;;;;5074266;28;20279;-78
2021/06/19 04:09:52;;;;;;;4.50;3.45;;;21.80;99.90;;;;;;5040705;28;20206;-77
2021/06/19 04:12:21;;;;;;;3.22;2.97;;;22.00;99.90;;;;;;5054425;28;20189;-78
2021/06/19 04:14:48;;;;;;;3.78;3.38;;;22.10;99.90;;;;;;5072971;28;20298;-79
2021/06/19 04:17:14;;;;;;;4.15;3.35;;;22.30;99.90;;;;;;5075332;28;20193;-79
2021/06/19 04:19:40;;;;;;;3.13;2.92;;;22.40;99.90;;;;;;5057520;28;20191;-78
2021/06/19 04:22:07;;;;;;;3.58;3.28;;;22.50;99.90;;;;;;5069834;28;20260;-76
2021/06/19 04:24:33;;;;;;;5.80;3.40;;;22.50;99.90;;;;;;5074755;28;20217;-76
2021/06/19 04:27:00;;;;;;;3.65;3.35;;;22.50;99.90;;;;;;5074835;28;20200;-77
2021/06/19 04:29:27;;;;;;;3.90;3.60;;;22.60;99.90;;;;;;5072272;28;20186;-78
2021/06/19 04:31:54;;;;;;;4.85;3.35;;;22.80;99.90;;;;;;5075452;28;20184;-77
2021/06/19 04:34:20;;;;;;;3.72;3.42;;;23.20;99.90;;;;;;5060030;28;20627;-78
2021/06/19 04:36:46;;;;;;;3.60;3.30;;;23.70;99.90;;;;;;5072464;28;20639;-79
2021/06/19 04:39:11;;;;;;;3.65;3.28;;;24.10;99.90;;;;;;5062622;28;20273;-77
2021/06/19 04:42:14;;;;;;;3.97;3.45;;;24.70;99.90;;;;;;5079477;28;20553;-78
2021/06/19 04:47:13;;;;;;;4.93;3.45;;;26.00;99.90;;;;;;5076943;28;20296;-78
2021/06/19 04:49:38;;;;;;;3.95;3.65;;;26.50;99.90;;;;;;5082293;28;20276;-79
2021/06/19 04:52:04;;;;;;;3.65;3.35;;;27.00;99.90;;;;;;5075857;28;20184;-78
2021/06/19 04:54:36;;;;;;;3.60;3.30;;;27.40;99.90;;;;;;5056065;28;20193;-77
2021/06/19 04:57:04;;;;;;;3.97;3.22;;;27.60;99.90;;;;;;5077742;28;20289;-77
2021/06/19 04:59:30;;;;;;;4.05;3.65;;;28.10;99.90;;;;;;5075609;28;20185;-77
2021/06/19 05:01:56;;;;;;;4.35;3.95;;;28.60;99.90;;;;;;5075822;28;20185;-78
2021/06/19 05:04:21;;;;;;;3.90;3.60;;;29.20;99.90;;;;;;5075164;28;20243;-77
2021/06/19 05:06:47;;;;;;;5.45;3.38;;;29.40;99.90;;;;;;5074989;28;20208;-79
2021/06/19 05:09:13;;;;;;;4.45;4.15;;;29.60;99.90;;;;;;5074315;28;20182;-78
2021/06/19 05:11:38;;;;;;;3.25;2.95;;;29.90;99.90;;;;;;5075302;28;20201;-79
2021/06/19 05:14:04;;;;;;;4.13;3.83;;;30.20;99.90;;;;;;5057923;28;20708;-77
2021/06/19 05:16:29;;;;;;;3.85;3.42;;;30.50;99.90;;;;;;5073165;28;20213;-78
2021/06/19 05:18:55;;;;;;;4.47;3.90;;;30.40;99.90;;;;;;5074660;28;20288;-78
2021/06/19 05:21:21;;;;;;;4.20;3.90;;;30.50;99.90;;;;;;5056906;28;20211;-78
2021/06/19 05:23:46;;;;;;;3.83;3.53;;;30.80;99.90;;;;;;5077242;28;20495;-80
2021/06/19 05:26:12;;;;;;;3.55;3.33;;;31.20;99.90;;;;;;5071194;28;20685;-79
2021/06/19 05:28:37;;;;;;;3.90;3.60;;;31.50;99.90;;;;;;5079517;28;20188;-78
2021/06/19 05:31:03;;;;;;;4.95;4.00;;;31.80;99.90;;;;;;5054802;28;20295;-79
2021/06/19 05:33:31;;;;;;;4.40;4.10;;;32.20;99.90;;;;;;5054947;28;20185;-77
2021/06/19 05:35:56;;;;;;;4.70;3.65;;;32.30;99.90;;;;;;5052128;28;20185;-78
2021/06/19 05:38:22;;;;;;;5.35;4.32;;;32.40;99.90;;;;;;5077152;28;20669;-77
2021/06/19 05:40:47;;;;;;;4.90;4.50;;;32.60;99.90;;;;;;5054257;28;20247;-78
2021/06/19 05:43:13;;;;;;;6.60;4.25;;;32.60;99.90;;;;;;5075238;28;20181;-78
2021/06/19 05:45:39;;;;;;;4.90;4.20;;;32.70;99.90;;;;;;5074605;28;20176;-78
2021/06/19 05:48:05;;;;;;;4.88;4.47;;;32.60;99.90;;;;;;5075221;28;21185;-78
2021/06/19 05:50:31;;;;;;;4.50;4.10;;;32.30;99.90;;;;;;5055948;28;20193;-79
2021/06/19 05:52:56;;;;;;;8.20;4.63;;;31.80;99.90;;;;;;5059224;28;21154;-78
2021/06/19 05:55:22;;;;;;;4.97;4.57;;;30.90;99.90;;;;;;5078761;28;20199;-77
2021/06/19 05:57:48;;;;;;;4.75;4.35;;;30.30;99.90;;;;;;5078705;28;20207;-77
2021/06/19 06:00:14;;;;;;;4.70;4.30;;;30.60;99.90;;;;;;5075190;28;20268;-78
2021/06/19 06:02:41;;;;;;;4.80;4.40;;;31.20;99.90;;;;;;5055486;28;20188;-78
2021/06/19 06:05:08;;;;;;;5.50;4.35;;;31.80;99.90;;;;;;5056468;28;20177;-78
2021/06/19 06:07:34;;;;;;;4.82;4.40;;;32.30;99.90;;;;;;5070043;28;20211;-79
2021/06/19 06:09:59;;;;;;;6.07;5.07;;;32.50;99.90;;;;;;5077004;28;20212;-78
2021/06/19 06:12:25;;;;;;;5.38;4.78;;;33.00;99.90;;;;;;5075889;28;20646;-78
2021/06/19 06:14:51;;;;;;;5.60;5.05;;;33.20;99.90;;;;;;5069985;28;20548;-79
2021/06/19 06:17:16;;;;;;;5.28;4.78;;;33.40;99.90;;;;;;5075335;28;20258;-79
2021/06/19 06:19:42;;;;;;;5.45;4.93;;;33.20;99.90;;;;;;5052371;28;20235;-77
2021/06/19 06:22:08;;;;;;;5.72;5.22;;;33.10;99.90;;;;;;5071369;28;20177;-79
2021/06/19 06:24:33;;;;;;;5.20;4.70;;;32.80;99.90;;;;;;5071372;28;20195;-80
2021/06/19 06:26:59;;;;;;;5.32;4.82;;;33.00;99.90;;;;;;5076878;28;20628;-79
2021/06/19 06:29:25;;;;;;;5.20;4.70;;;32.90;99.90;;;;;;5051687;28;20630;-79
2021/06/19 06:31:51;;;;;;;5.45;4.72;;;32.90;99.90;;;;;;5074219;28;20212;-80
2021/06/19 06:34:18;;;;;;;5.13;4.50;;;33.00;99.90;;;;;;5067126;28;20643;-79
2021/06/19 06:36:43;;;;;;;4.60;4.20;;;33.20;99.90;;;;;;5071405;28;20223;-78
2021/06/19 06:39:09;;;;;;;5.00;4.22;;;33.20;99.90;;;;;;5075372;28;20662;-79
2021/06/19 06:41:36;;;;;;;4.30;3.90;;;33.10;99.90;;;;;;5070176;28;20182;-79
2021/06/19 06:44:01;;;;;;;6.32;4.88;;;33.00;99.90;;;;;;5058572;28;20192;-78
2021/06/19 06:46:27;;;;;;;4.55;4.18;;;32.70;99.90;;;;;;5075286;28;20262;-78
2021/06/19 06:48:52;;;;;;;4.90;4.25;;;32.10;99.90;;;;;;5072768;28;20178;-78
2021/06/19 06:51:18;;;;;;;4.72;4.32;;;31.10;99.90;;;;;;5052632;28;20633;-78
2021/06/19 06:53:44;;;;;;;4.53;4.10;;;30.80;99.90;;;;;;5071696;28;20196;-77
2021/06/19 06:56:09;;;;;;;4.43;4.03;;;30.50;99.90;;;;;;5075908;28;20685;-78
2021/06/19 06:58:35;;;;;;;4.65;3.92;;;30.30;99.90;;;;;;5039300;28;20177;-79
2021/06/19 07:01:01;;;;;;;4.22;3.90;;;30.20;99.90;;;;;;5072622;28;20302;-77
2021/06/19 07:03:26;;;;;;;7.65;4.68;;;30.00;99.90;;;;;;5048729;28;20261;-78
2021/06/19 07:05:53;;;;;;;6.38;4.43;;;29.80;99.90;;;;;;5073666;28;20187;-78
2021/06/19 07:08:18;;;;;;;5.20;4.55;;;29.50;99.90;;;;;;5077614;28;20182;-77
2021/06/19 07:10:44;;;;;;;4.93;4.47;;;29.60;99.90;;;;;;5073510;28;20208;-78
2021/06/19 07:13:10;;;;;;;4.95;3.92;;;29.90;99.90;;;;;;5075208;28;20202;-78
2021/06/19 07:15:36;;;;;;;3.53;3.17;;;30.10;99.90;;;;;;5049672;28;20177;-78
2021/06/19 07:18:02;;;;;;;3.03;2.55;;;29.90;99.90;;;;;;5056287;28;20282;-79
2021/06/19 07:20:28;;;;;;;6.35;3.55;;;30.10;99.90;;;;;;5072352;28;20669;-78
2021/06/19 07:22:53;;;;;;;3.17;2.55;;;30.20;99.90;;;;;;5069633;28;20209;-80
2021/06/19 07:25:19;;;;;;;3.15;2.63;;;30.40;99.90;;;;;;5050385;28;20181;-79
2021/06/19 07:27:47;;;;;;;4.10;3.03;;;30.30;99.90;;;;;;5071281;28;20221;-77
2021/06/19 07:30:13;;;;;;;3.67;3.20;;;30.30;99.90;;;;;;5057266;28;20198;-78
2021/06/19 07:32:39;;;;;;;6.72;3.08;;;30.50;99.90;;;;;;5051768;28;20189;-79
2021/06/19 07:35:07;;;;;;;3.15;2.40;;;30.60;99.90;;;;;;5070714;28;20522;-78
2021/06/19 07:37:32;;;;;;;3.08;2.35;;;30.50;99.90;;;;;;5069781;28;20197;-78
2021/06/19 07:39:58;;;;;;;3.13;2.83;;;30.60;99.90;;;;;;5073071;28;20188;-80
2021/06/19 07:42:23;;;;;;;3.03;2.72;;;30.80;99.90;;;;;;5077190;28;20189;-78
2021/06/19 07:44:50;;;;;;;3.05;2.75;;;30.70;99.90;;;;;;5068218;28;20189;-78
2021/06/19 07:47:16;;;;;;;4.10;2.53;;;30.50;99.90;;;;;;5074635;28;20603;-78
2021/06/19 07:49:41;;;;;;;3.15;2.83;;;30.20;99.90;;;;;;5074511;28;20188;-78
2021/06/19 07:52:07;;;;;;;3.22;2.92;;;30.00;99.90;;;;;;5071531;28;20192;-78
2021/06/19 07:54:36;;;;;;;3.45;2.90;;;30.00;99.90;;;;;;5074182;28;20235;-78
2021/06/19 07:57:04;;;;;;;3.05;2.75;;;29.90;99.90;;;;;;5073336;28;20197;-78
2021/06/19 07:59:30;;;;;;;3.35;2.80;;;30.20;99.90;;;;;;5069188;28;20174;-78
2021/06/19 08:01:55;;;;;;;2.90;2.67;;;30.50;99.90;;;;;;5061104;28;20192;-80
2021/06/19 08:04:21;;;;;;;2.90;2.63;;;30.40;99.90;;;;;;5071847;28;20622;-79
2021/06/19 08:06:46;;;;;;;2.72;2.53;;;30.30;99.90;;;;;;5072703;28;20205;-79
2021/06/19 08:09:12;;;;;;;4.13;2.75;;;30.50;99.90;;;;;;5078396;28;20848;-78
2021/06/19 08:11:38;;;;;;;2.92;2.72;;;30.60;99.90;;;;;;5054826;28;20259;-77
2021/06/19 08:14:04;;;;;;;3.75;3.40;;;30.60;99.90;;;;;;5075780;28;20651;-79
2021/06/19 08:16:30;;;;;;;5.07;3.08;;;30.60;99.90;;;;;;5077662;28;20710;-78
2021/06/19 08:18:55;;;;;;;3.28;2.97;;;30.80;99.90;;;;;;5058438;28;20177;-77
2021/06/19 08:21:21;;;;;;;3.38;3.08;;;30.60;99.90;;;;;;5078217;28;20925;-78
2021/06/19 08:23:47;;;;;;;3.55;3.25;;;30.30;99.90;;;;;;5076721;28;20235;-78
2021/06/19 08:26:12;;;;;;;5.18;3.40;;;30.00;99.90;;;;;;5057275;28;20205;-77
2021/06/19 08:28:38;;;;;;;4.20;3.08;;;30.00;99.90;;;;;;5057123;28;20185;-78
2021/06/19 08:31:04;;;;;;;3.08;2.88;;;30.10;99.90;;;;;;5077745;28;20298;-78
2021/06/19 08:33:31;;;;;;;4.30;3.70;;;30.30;99.90;;;;;;5074710;28;20213;-78
2021/06/19 08:35:57;;;;;;;4.72;3.20;;;30.40;99.90;;;;;;5081238;28;20177;-77
2021/06/19 08:38:22;;;;;;;5.38;3.47;;;30.60;99.90;;;;;;5074496;28;20173;-78
2021/06/19 08:40:48;;;;;;;3.65;3.25;;;30.50;99.90;;;;;;5077937;28;20570;-78
2021/06/19 08:43:14;;;;;;;4.32;3.40;;;30.50;99.90;;;;;;5078674;28;20595;-79
2021/06/19 08:45:40;;;;;;;4.00;3.33;;;30.70;99.90;;;;;;5057496;28;20185;-78
2021/06/19 08:48:06;;;;;;;7.00;4.07;;;31.00;99.90;;;;;;5056508;28;20295;-78
2021/06/19 08:50:32;;;;;;;4.25;3.30;;;31.30;99.90;;;;;;5056277;28;20205;-78
2021/06/19 08:52:59;;;;;;;4.47;3.58;;;31.20;99.90;;;;;;5068777;28;20556;-77
2021/06/19 08:55:25;;;;;;;3.58;3.10;;;31.10;99.90;;;;;;5077674;28;20216;-79
2021/06/19 08:57:51;;;;;;;3.65;3.30;;;31.00;99.90;;;;;;5076075;28;20200;-77
2021/06/19 09:00:17;;;;;;;3.67;3.22;;;30.90;99.90;;;;;;5056216;28;20204;-78
2021/06/19 09:02:43;;;;;;;4.53;3.55;;;30.90;99.90;;;;;;5080227;28;20246;-78
2021/06/19 09:05:14;;;;;;;3.67;3.03;;;31.10;99.90;;;;;;5073497;28;20890;-78
2021/06/19 09:07:51;;;;;;;3.60;2.80;;;31.30;99.90;;;;;;5080324;28;20250;-78
2021/06/19 09:10:37;;;;;;;3.65;3.03;;;31.40;99.90;;;;;;5072756;28;20567;-78
2021/06/19 09:13:04;;;;;;;3.33;2.80;;;31.50;99.90;;;;;;5074180;28;20666;-78
2021/06/19 09:15:50;;;;;;;5.13;3.00;;;31.50;99.90;;;;;;5072500;28;20209;-78
2021/06/19 09:18:22;;;;;;;3.45;3.15;;;31.50;99.90;;;;;;5075962;28;20666;-77
2021/06/19 09:20:56;;;;;;;3.67;3.38;;;31.60;99.90;;;;;;5071773;28;20185;-78
2021/06/19 09:23:29;;;;;;;3.45;3.15;;;31.80;99.90;;;;;;5077284;28;20197;-78
2021/06/19 09:26:17;;;;;;;4.35;3.65;;;31.90;99.90;;;;;;5082035;28;20199;-78
2021/06/19 09:29:00;;;;;;;5.07;3.15;;;32.40;99.90;;;;;;5072098;28;20185;-79
2021/06/19 09:31:49;;;;;;;5.53;3.20;;;32.40;99.90;;;;;;5076709;28;20209;-78
2021/06/19 09:34:26;;;;;;;3.30;2.90;;;32.50;99.90;;;;;;5080645;28;20248;-77
2021/06/19 09:37:03;;;;;;;3.25;2.90;;;32.60;99.90;;;;;;5078699;28;20775;-79
2021/06/19 09:39:30;;;;;;;8.05;3.05;;;32.60;99.90;;;;;;5050166;28;20209;-79
2021/06/19 09:41:58;;;;;;;2.78;2.58;;;32.40;99.90;;;;;;5074056;28;20189;-78
2021/06/19 09:44:41;;;;;;;5.65;2.80;;;32.10;99.90;;;;;;5077333;28;20192;-78
2021/06/19 09:47:09;;;;;;;5.22;2.75;;;32.10;99.90;;;;;;5069956;28;20208;-79
2021/06/19 09:49:38;;;;;;;3.55;2.60;;;32.30;99.90;;;;;;5072759;28;20239;-80
2021/06/19 09:52:04;;;;;;;3.92;2.50;;;32.10;99.90;;;;;;5061998;28;20271;-79
2021/06/19 09:54:30;;;;;;;3.38;2.47;;;31.80;99.90;;;;;;5073172;28;21020;-79
2021/06/19 09:57:00;;;;;;;2.60;2.38;;;31.60;99.90;;;;;;5075023;28;20296;-79
2021/06/19 09:59:27;;;;;;;3.28;2.47;;;31.60;99.90;;;;;;5071378;28;20178;-79
2021/06/19 10:01:55;;;;;;;4.07;2.80;;;31.80;99.90;;;;;;5050532;28;20182;-78
2021/06/19 10:04:23;;;;;;;2.83;2.60;;;31.80;99.90;;;;;;5075799;28;20181;-79
2021/06/19 10:06:50;;;;;;;3.05;2.70;;;31.90;99.90;;;;;;5075236;28;20204;-79
2021/06/19 10:09:16;;;;;;;2.50;2.20;;;32.00;99.90;;;;;;5072926;28;20277;-80
2021/06/19 10:11:43;;;;;;;2.38;2.17;;;32.00;99.90;;;;;;5067150;28;20304;-79
2021/06/19 10:14:13;;;;;;;4.05;2.95;;;31.90;99.90;;;;;;5054970;28;20185;-78
2021/06/19 10:16:41;;;;;;;2.50;2.28;;;32.10;99.90;;;;;;5057234;28;20223;-79
2021/06/19 10:19:08;;;;;;;3.38;2.70;;;32.20;99.90;;;;;;5052925;28;20214;-80
2021/06/19 10:21:34;;;;;;;4.72;3.28;;;32.30;99.90;;;;;;5071704;28;20268;-80
2021/06/19 10:24:00;;;;;;;3.42;3.10;;;32.40;99.90;;;;;;5069554;28;20634;-80
2021/06/19 10:26:26;;;;;;;3.50;3.20;;;32.50;99.90;;;;;;5052286;28;20596;-80
2021/06/19 10:28:57;;;;;;;3.15;2.85;;;32.40;99.90;;;;;;5048057;28;20491;-79
2021/06/19 10:31:25;;;;;;;3.05;2.78;;;32.40;99.90;;;;;;5055299;28;21052;-78
2021/06/19 10:33:50;;;;;;;3.35;2.72;;;32.40;99.90;;;;;;5073450;28;20241;-79
2021/06/19 10:36:16;;;;;;;3.22;3.00;;;32.50;99.90;;;;;;5075780;28;20217;-80
2021/06/19 10:38:54;;;;;;;5.13;3.30;;;32.50;99.90;;;;;;5070909;28;20189;-79
2021/06/19 10:41:22;;;;;;;3.60;3.08;;;32.60;99.90;;;;;;5072759;28;20214;-78
2021/06/19 10:43:51;;;;;;;4.93;2.92;;;32.40;99.90;;;;;;5073877;28;20189;-78
2021/06/19 10:46:28;;;;;;;3.67;3.22;;;32.30;99.90;;;;;;5056532;28;20205;-79
2021/06/19 10:48:54;;;;;;;4.03;3.20;;;32.20;99.90;;;;;;5072002;28;20188;-78
2021/06/19 10:51:21;;;;;;;3.80;2.67;;;32.30;99.90;;;;;;5074770;28;20215;-77
2021/06/19 10:54:16;;;;;;;4.70;3.03;;;32.40;99.90;;;;;;5067693;28;20742;-80
2021/06/19 10:56:58;;;;;;;3.40;3.10;;;32.60;99.90;;;;;;5055152;28;20202;-77
2021/06/19 10:59:24;;;;;;;3.35;2.92;;;32.60;99.90;;;;;;5072515;28;20182;-77
2021/06/19 11:01:52;;;;;;;3.38;3.08;;;32.60;99.90;;;;;;5059535;28;20204;-75
2021/06/19 11:04:39;;;;;;;2.63;2.42;;;32.50;99.90;;;;;;5076219;28;20189;-75
2021/06/19 11:07:45;;;;;;;3.08;2.78;;;32.80;99.90;;;;;;5074446;28;20228;-77
2021/06/19 11:10:43;;;;;;;2.78;2.58;;;32.70;99.90;;;;;;5049245;28;20258;-77
2021/06/19 11:13:27;;;;;;;2.75;2.45;;;32.60;99.90;;;;;;5072759;28;20252;-77
2021/06/19 11:15:54;;;;;;;3.20;2.90;;;32.40;99.90;;;;;;5072447;28;20183;-76
2021/06/19 11:18:48;;;;;;;4.18;3.45;;;32.50;99.90;;;;;;5073904;28;20173;-78
2021/06/19 11:21:18;;;;;;;3.28;2.65;;;32.80;99.90;;;;;;5055850;28;20193;-77
2021/06/19 11:24:02;;;;;;;2.92;2.72;;;32.80;99.90;;;;;;5067278;28;20296;-77
2021/06/19 11:27:00;;;;;;;3.35;2.67;;;33.10;99.90;;;;;;5076328;28;20201;-77
2021/06/19 11:29:35;;;;;;;3.05;2.70;;;33.30;99.90;;;;;;5075046;28;20189;-77
2021/06/19 11:32:25;;;;;;;3.03;2.72;;;33.20;99.40;;;;;;5076726;28;20212;-77
2021/06/19 11:34:52;;;;;;;2.83;2.60;;;33.10;98.20;;;;;;5072340;28;20188;-78
2021/06/19 11:37:18;;;;;;;3.35;3.05;;;32.90;99.80;;;;;;5075653;28;20299;-76
2021/06/19 11:39:44;;;;;;;5.38;2.70;;;32.70;99.90;;;;;;5077048;28;20182;-81
2021/06/19 11:42:10;;;;;;;2.60;2.40;;;32.70;99.90;;;;;;5081212;28;20204;-78
2021/06/19 11:44:41;;;;;;;2.50;2.30;;;32.90;99.30;;;;;;5085046;28;20526;-78
2021/06/19 11:47:08;;;;;;;3.40;2.83;;;33.10;98.90;;;;;;5070141;28;20233;-78
2021/06/19 11:49:39;;;;;;;2.78;2.58;;;33.20;98.70;;;;;;5086322;28;20208;-78
2021/06/19 11:52:06;;;;;;;3.97;3.00;;;33.10;98.60;;;;;;5085067;28;20268;-78
2021/06/19 11:54:33;;;;;;;2.60;2.40;;;33.20;99.10;;;;;;5065173;28;20177;-79
2021/06/19 11:56:58;;;;;;;3.00;2.50;;;33.20;98.60;;;;;;5078648;28;20197;-78
2021/06/19 11:59:26;;;;;;;3.05;2.75;;;33.40;98.70;;;;;;5085995;28;20756;-78
2021/06/19 12:01:52;;;;;;;2.35;2.15;;;33.60;97.60;;;;;;5082649;28;20185;-77
2021/06/19 12:04:25;;;;;;;1.90;1.80;;;33.20;97.00;;;;;;5065971;28;20185;-76
2021/06/19 12:06:53;;;;;;;2.53;2.13;;;33.20;98.20;;;;;;5085349;28;20681;-76
2021/06/19 12:09:28;;;;;;;2.00;1.80;;;33.10;97.00;;;;;;5087003;28;20181;-77
2021/06/19 12:12:02;;;;;;;2.05;1.95;;;32.80;96.30;;;;;;5083745;28;20204;-78
2021/06/19 12:14:33;;;;;;;2.35;2.13;;;32.30;97.40;;;;;;5086321;28;20192;-76
2021/06/19 12:17:06;;;;;;;2.17;1.95;;;32.10;97.40;;;;;;5080175;28;20201;-77
2021/06/19 12:19:33;;;;;;;2.03;1.90;;;32.10;97.50;;;;;;5069487;28;20208;-77
2021/06/19 12:22:08;;;;;;;3.20;2.20;;;32.40;97.20;;;;;;5071869;28;20208;-77
2021/06/19 12:24:37;;;;;;;2.42;1.98;;;32.30;96.70;;;;;;5089845;28;20200;-76
2021/06/19 12:27:18;;;;;;;3.25;1.80;;;32.60;96.90;;;;;;5087801;28;20566;-78
2021/06/19 12:29:57;;;;;;;1.75;1.65;;;32.80;96.30;;;;;;5090975;28;20216;-76
2021/06/19 12:32:30;;;;;;;2.28;1.85;;;33.00;95.10;;;;;;5082227;28;20186;-77
2021/06/19 12:35:01;;;;;;;1.98;1.60;;;33.10;94.70;;;;;;5087571;28;20237;-76
2021/06/19 12:37:34;;;;;;;2.28;1.80;;;32.80;94.00;;;;;;5085595;28;20207;-77
2021/06/19 12:40:05;;;;;;;1.50;1.40;;;32.80;94.30;;;;;;5063150;28;20184;-77
2021/06/19 12:42:34;;;;;;;1.83;1.70;;;32.90;94.70;;;;;;5080809;28;20181;-77
2021/06/19 12:45:33;;;;;;;2.47;2.22;;;32.90;95.00;;;;;;5071496;28;20952;-76
2021/06/19 12:47:59;;;;;;;1.50;1.40;;;33.00;94.10;;;;;;5071048;28;20560;-78
2021/06/19 12:50:31;;;;;;;3.33;1.98;;;33.10;94.40;;;;;;5060260;28;20220;-77
2021/06/19 12:53:12;;;;;;;1.50;1.40;;;33.10;92.50;;;;;;5053692;28;20195;-77
2021/06/19 12:55:44;;;;;;;1.60;1.50;;;33.10;93.80;;;;;;5071268;28;20178;-79